createdAt,value
2023-01-29T00:00:09.205Z,21.28
2023-01-29T00:02:38.965Z,20.66
2023-01-29T00:05:25.476Z,20.48
2023-01-29T00:07:52.954Z,21.28
2023-01-29T00:10:19.589Z,19.93
2023-01-29T00:12:46.230Z,20.98
2023-01-29T00:15:12.892Z,21.66
2023-01-29T00:17:39.548Z,21.80
2023-01-29T00:20:06.599Z,21.33
2023-01-29T00:22:33.281Z,21.66
2023-01-29T00:24:59.946Z,21.13
2023-01-29T00:27:26.596Z,21.15
2023-01-29T00:29:53.236Z,21.52
2023-01-29T00:32:20.094Z,21.70
2023-01-29T00:34:46.815Z,21.87
2023-01-29T00:37:13.473Z,21.34
2023-01-29T00:39:47.960Z,20.82
2023-01-29T00:42:14.925Z,21.59
2023-01-29T00:44:41.602Z,21.14
2023-01-29T00:47:08.259Z,21.42
2023-01-29T00:49:34.918Z,21.64
2023-01-29T00:52:01.569Z,21.94
2023-01-29T00:54:28.194Z,21.12
2023-01-29T00:56:54.819Z,21.66
2023-01-29T00:59:21.454Z,22.56
2023-01-29T01:01:48.176Z,22.27
2023-01-29T01:04:14.882Z,21.25
2023-01-29T01:06:43.021Z,22.01
2023-01-29T01:09:09.917Z,21.54
2023-01-29T01:11:36.583Z,21.20
2023-01-29T01:14:03.228Z,21.46
2023-01-29T01:16:29.900Z,21.65
2023-01-29T01:18:56.665Z,21.04
2023-01-29T01:21:23.297Z,20.69
2023-01-29T01:23:49.937Z,21.04
2023-01-29T01:26:16.635Z,21.34
2023-01-29T01:28:43.270Z,20.33
2023-01-29T01:31:10.871Z,20.68
2023-01-29T01:33:37.610Z,21.14
2023-01-29T01:36:04.605Z,20.74
2023-01-29T01:38:31.264Z,20.29
2023-01-29T01:40:57.909Z,19.86
2023-01-29T01:43:24.590Z,20.42
2023-01-29T01:45:51.262Z,20.01
2023-01-29T01:48:25.027Z,20.65
2023-01-29T01:50:59.519Z,21.18
2023-01-29T01:53:29.123Z,21.56
2023-01-29T01:55:59.624Z,20.90
2023-01-29T01:58:30.941Z,20.94
2023-01-29T02:00:57.683Z,21.05
2023-01-29T02:03:24.471Z,20.70
2023-01-29T02:05:51.125Z,21.50
2023-01-29T02:08:20.488Z,20.93
2023-01-29T02:10:47.516Z,20.08
2023-01-29T02:13:14.536Z,20.66
2023-01-29T02:15:41.167Z,20.49
2023-01-29T02:18:08.297Z,20.72
2023-01-29T02:20:34.940Z,21.33
2023-01-29T02:23:21.121Z,21.50
2023-01-29T02:26:00.093Z,21.38
2023-01-29T02:28:29.665Z,21.43
2023-01-29T02:31:09.964Z,21.54
2023-01-29T02:34:01.626Z,21.37
2023-01-29T02:36:37.069Z,21.78
2023-01-29T02:39:13.249Z,21.27
2023-01-29T02:42:01.063Z,20.56
2023-01-29T02:44:37.211Z,21.07
2023-01-29T02:47:05.839Z,20.93
2023-01-29T02:49:59.885Z,21.01
2023-01-29T02:52:29.644Z,21.74
2023-01-29T02:55:06.811Z,21.60
2023-01-29T02:57:35.936Z,21.86
2023-01-29T03:00:09.938Z,21.60
2023-01-29T03:02:56.843Z,22.09
2023-01-29T03:05:37.064Z,21.72
2023-01-29T03:08:07.181Z,22.56
2023-01-29T03:10:40.421Z,20.91
2023-01-29T03:13:12.265Z,21.31
2023-01-29T03:15:43.418Z,21.78
2023-01-29T03:18:12.458Z,20.66
2023-01-29T03:20:47.857Z,20.25
2023-01-29T03:23:19.753Z,20.66
2023-01-29T03:25:46.418Z,20.48
2023-01-29T03:28:15.178Z,20.11
2023-01-29T03:30:50.014Z,19.86
2023-01-29T03:33:16.667Z,20.65
2023-01-29T03:36:10.664Z,21.07
2023-01-29T03:38:37.317Z,19.92
2023-01-29T03:41:03.878Z,19.86
2023-01-29T03:43:36.339Z,20.28
2023-01-29T03:46:11.678Z,20.40
2023-01-29T03:48:51.587Z,20.28
2023-01-29T03:51:21.131Z,20.44
2023-01-29T03:53:49.131Z,20.60
2023-01-29T03:56:26.421Z,20.99
2023-01-29T03:58:59.159Z,20.52
2023-01-29T04:01:29.188Z,21.86
2023-01-29T04:03:58.897Z,22.15
2023-01-29T04:06:27.411Z,21.75
2023-01-29T04:08:59.265Z,22.28
2023-01-29T04:11:25.913Z,22.92
2023-01-29T04:13:52.560Z,21.98
2023-01-29T04:16:33.401Z,22.01
2023-01-29T04:19:00.139Z,22.97
2023-01-29T04:21:26.971Z,22.48
2023-01-29T04:23:53.666Z,21.68
2023-01-29T04:26:34.916Z,22.49
2023-01-29T04:29:52.534Z,22.36
2023-01-29T04:32:26.121Z,21.58
2023-01-29T04:35:21.704Z,20.98
2023-01-29T04:38:03.334Z,19.38
2023-01-29T04:40:35.427Z,20.74
2023-01-29T04:43:09.706Z,20.22
2023-01-29T04:45:43.001Z,19.67
2023-01-29T04:48:26.257Z,19.95
2023-01-29T04:51:15.709Z,20.13
2023-01-29T04:53:55.815Z,19.72
2023-01-29T04:56:31.395Z,19.59
2023-01-29T04:59:02.211Z,19.42
2023-01-29T05:01:28.899Z,19.53
2023-01-29T05:03:55.569Z,19.54
2023-01-29T05:06:22.213Z,20.14
2023-01-29T05:08:48.847Z,19.49
2023-01-29T05:11:15.621Z,19.32
2023-01-29T05:13:42.259Z,19.84
2023-01-29T05:16:22.395Z,19.88
2023-01-29T05:18:49.073Z,20.72
2023-01-29T05:21:15.743Z,21.15
2023-01-29T05:23:42.379Z,20.35
2023-01-29T05:26:09.035Z,20.15
2023-01-29T05:28:35.740Z,20.55
2023-01-29T05:31:02.452Z,21.21
2023-01-29T05:33:30.186Z,20.55
2023-01-29T05:35:57.221Z,20.74
2023-01-29T05:38:23.870Z,20.70
2023-01-29T05:40:50.557Z,21.10
2023-01-29T05:43:24.363Z,20.84
2023-01-29T05:45:58.278Z,20.92
2023-01-29T05:48:25.474Z,21.12
2023-01-29T05:50:52.154Z,21.04
2023-01-29T05:53:18.821Z,21.87
2023-01-29T05:55:46.082Z,22.48
2023-01-29T05:58:12.812Z,21.49
2023-01-29T06:00:39.477Z,21.16
2023-01-29T06:03:06.223Z,19.63
2023-01-29T06:05:32.897Z,19.92
2023-01-29T06:07:59.559Z,21.68
2023-01-29T06:10:26.217Z,22.06
2023-01-29T06:12:52.916Z,20.74
2023-01-29T06:15:19.553Z,20.78
2023-01-29T06:17:46.196Z,19.70
2023-01-29T06:20:12.870Z,19.66
2023-01-29T06:22:39.542Z,21.11
2023-01-29T06:25:06.849Z,20.42
2023-01-29T06:27:33.510Z,21.23
2023-01-29T06:30:00.177Z,20.79
2023-01-29T06:32:27.601Z,20.56
2023-01-29T06:34:54.321Z,20.45
2023-01-29T06:37:21.267Z,20.17
2023-01-29T06:39:47.898Z,20.51
2023-01-29T06:42:14.528Z,21.01
2023-01-29T06:44:41.189Z,20.74
2023-01-29T06:47:07.818Z,20.11
2023-01-29T06:49:34.458Z,19.99
2023-01-29T06:52:01.233Z,20.30
2023-01-29T06:54:27.867Z,21.11
2023-01-29T06:56:54.549Z,22.32
2023-01-29T06:59:21.282Z,21.34
2023-01-29T07:01:48.068Z,21.85
2023-01-29T07:04:14.771Z,21.45
2023-01-29T07:06:41.569Z,20.90
2023-01-29T07:09:08.231Z,20.90
2023-01-29T07:11:35.077Z,21.49
2023-01-29T07:14:01.770Z,21.88
2023-01-29T07:16:28.474Z,21.84
2023-01-29T07:18:55.332Z,21.52
2023-01-29T07:21:22.004Z,21.19
2023-01-29T07:23:48.686Z,20.70
2023-01-29T07:26:15.356Z,19.97
2023-01-29T07:28:41.981Z,19.85
2023-01-29T07:31:08.661Z,20.59
2023-01-29T07:33:35.366Z,21.61
2023-01-29T07:36:02.020Z,21.15
2023-01-29T07:38:28.691Z,20.69
2023-01-29T07:40:55.362Z,22.52
2023-01-29T07:43:21.989Z,22.03
2023-01-29T07:45:48.656Z,21.98
2023-01-29T07:48:15.371Z,20.60
2023-01-29T07:50:42.077Z,20.42
2023-01-29T07:53:12.425Z,20.75
2023-01-29T07:55:39.081Z,21.05
2023-01-29T07:58:05.772Z,20.55
2023-01-29T08:00:32.515Z,20.45
2023-01-29T08:03:06.403Z,20.18
2023-01-29T08:05:33.119Z,19.38
2023-01-29T08:08:06.551Z,19.96
2023-01-29T08:10:35.200Z,19.97
2023-01-29T08:13:01.917Z,20.55
2023-01-29T08:15:28.646Z,20.65
2023-01-29T08:20:41.950Z,19.74
2023-01-29T08:23:15.015Z,19.09
2023-01-29T08:25:41.729Z,18.67
2023-01-29T08:28:08.374Z,19.14
2023-01-29T08:30:35.236Z,18.68
2023-01-29T08:33:02.848Z,17.87
2023-01-29T08:35:29.507Z,17.43
2023-01-29T08:37:57.189Z,16.88
2023-01-29T08:40:23.832Z,16.98
2023-01-29T08:42:50.455Z,17.17
2023-01-29T08:45:17.112Z,16.81
2023-01-29T08:47:47.788Z,16.40
2023-01-29T08:50:15.674Z,17.48
2023-01-29T08:52:43.477Z,16.35
2023-01-29T08:55:10.366Z,16.03
2023-01-29T08:57:37.929Z,16.06
2023-01-29T09:00:08.375Z,15.78
2023-01-29T09:02:35.095Z,15.18
2023-01-29T09:05:01.905Z,16.45
2023-01-29T09:07:29.213Z,15.23
2023-01-29T09:09:55.914Z,14.92
2023-01-29T09:12:22.586Z,14.93
2023-01-29T09:14:49.276Z,14.77
2023-01-29T09:17:15.953Z,14.50
2023-01-29T09:19:42.831Z,14.86
2023-01-29T09:22:11.750Z,14.24
2023-01-29T09:24:38.625Z,14.75
2023-01-29T09:27:05.312Z,14.33
2023-01-29T09:29:33.539Z,14.50
2023-01-29T09:32:01.435Z,14.26
2023-01-29T09:34:28.071Z,13.56
2023-01-29T09:36:54.717Z,13.80
2023-01-29T09:39:21.386Z,14.57
2023-01-29T09:42:03.726Z,14.80
2023-01-29T09:45:07.509Z,15.35
2023-01-29T09:47:35.382Z,14.93
2023-01-29T09:50:13.520Z,14.74
2023-01-29T09:52:50.734Z,14.90
2023-01-29T09:55:27.128Z,15.03
2023-01-29T09:57:57.656Z,15.37
2023-01-29T10:00:33.022Z,15.96
2023-01-29T10:03:17.713Z,16.27
2023-01-29T10:06:00.146Z,15.83
2023-01-29T10:08:41.365Z,15.79
2023-01-29T10:11:29.714Z,16.70
2023-01-29T10:14:13.946Z,16.50
2023-01-29T10:16:59.071Z,15.83
2023-01-29T10:19:40.890Z,15.63
2023-01-29T10:22:29.299Z,17.43
2023-01-29T10:25:06.560Z,16.81
2023-01-29T10:27:34.608Z,18.19
2023-01-29T10:30:02.663Z,18.09
2023-01-29T10:32:29.387Z,17.64
2023-01-29T10:35:02.588Z,18.89
2023-01-29T10:37:40.449Z,18.39
2023-01-29T10:40:22.981Z,19.14
2023-01-29T10:42:53.140Z,17.68
2023-01-29T10:45:25.657Z,18.13
2023-01-29T10:48:05.215Z,18.01
2023-01-29T10:51:19.345Z,19.46
2023-01-29T10:53:54.408Z,18.41
2023-01-29T10:56:51.639Z,18.82
2023-01-29T10:59:27.098Z,18.42
2023-01-29T11:01:58.397Z,20.16
2023-01-29T11:04:26.637Z,21.01
2023-01-29T11:06:53.382Z,20.41
2023-01-29T11:09:32.861Z,20.42
2023-01-29T11:12:02.020Z,21.50
2023-01-29T11:14:35.170Z,21.81
2023-01-29T11:17:01.880Z,21.48
2023-01-29T11:19:41.953Z,21.14
2023-01-29T11:22:15.921Z,20.96
2023-01-29T11:24:42.936Z,22.76
2023-01-29T11:27:17.033Z,21.77
2023-01-29T11:29:46.941Z,22.69
2023-01-29T11:32:26.564Z,23.03
2023-01-29T11:35:06.389Z,23.84
2023-01-29T11:37:35.241Z,22.58
2023-01-29T11:40:02.011Z,22.04
2023-01-29T11:42:31.037Z,22.69
2023-01-29T11:44:57.730Z,21.76
2023-01-29T11:47:29.006Z,22.56
2023-01-29T11:50:00.418Z,22.78
2023-01-29T11:52:40.686Z,22.51
2023-01-29T11:55:11.895Z,22.40
2023-01-29T11:57:40.753Z,23.78
2023-01-29T12:00:29.967Z,22.31
2023-01-29T12:03:16.246Z,22.78
2023-01-29T12:05:53.548Z,23.16
2023-01-29T12:08:20.207Z,23.95
2023-01-29T12:10:46.867Z,23.24
2023-01-29T12:13:18.721Z,23.59
2023-01-29T12:15:45.534Z,22.65
2023-01-29T12:18:33.108Z,23.15
2023-01-29T12:21:04.163Z,23.83
2023-01-29T12:24:00.568Z,23.60
2023-01-29T12:26:30.043Z,23.98
2023-01-29T12:29:18.544Z,23.05
2023-01-29T12:32:17.524Z,23.10
2023-01-29T12:34:48.513Z,23.87
2023-01-29T12:37:21.970Z,24.29
2023-01-29T12:39:49.257Z,23.96
2023-01-29T12:42:20.692Z,24.12
2023-01-29T12:44:48.364Z,24.07
2023-01-29T12:47:34.164Z,24.13
2023-01-29T12:50:03.320Z,24.84
2023-01-29T12:52:56.432Z,24.30
2023-01-29T12:55:41.893Z,23.41
2023-01-29T12:58:22.376Z,24.52
2023-01-29T13:00:51.046Z,23.30
2023-01-29T13:03:32.653Z,24.02
2023-01-29T13:06:05.715Z,24.95
2023-01-29T13:08:35.864Z,24.22
2023-01-29T13:11:06.580Z,23.64
2023-01-29T13:13:35.663Z,24.22
2023-01-29T13:16:03.894Z,24.75
2023-01-29T13:18:56.169Z,24.42
2023-01-29T13:21:25.228Z,24.14
2023-01-29T13:23:53.649Z,24.03
2023-01-29T13:26:21.079Z,24.40
2023-01-29T13:28:47.799Z,23.69
2023-01-29T13:31:33.627Z,23.33
2023-01-29T13:34:16.369Z,24.48
2023-01-29T13:36:44.275Z,23.58
2023-01-29T13:39:24.369Z,22.66
2023-01-29T13:41:51.197Z,23.21
2023-01-29T13:44:33.644Z,23.32
2023-01-29T13:47:03.654Z,23.57
2023-01-29T13:49:41.024Z,24.48
2023-01-29T13:52:20.277Z,24.38
2023-01-29T13:54:54.042Z,23.77
2023-01-29T13:57:55.949Z,23.80
2023-01-29T14:00:22.633Z,23.40
2023-01-29T14:02:54.901Z,21.63
2023-01-29T14:05:30.687Z,23.00
2023-01-29T14:07:58.379Z,24.48
2023-01-29T14:10:25.721Z,23.82
2023-01-29T14:13:01.360Z,23.28
2023-01-29T14:15:29.368Z,22.89
2023-01-29T14:18:02.166Z,23.22
2023-01-29T14:20:45.696Z,23.58
2023-01-29T14:23:23.189Z,23.48
2023-01-29T14:25:49.863Z,23.19
2023-01-29T14:28:21.256Z,23.61
2023-01-29T14:30:48.423Z,23.79
2023-01-29T14:33:26.826Z,23.43
2023-01-29T14:35:53.529Z,23.67
2023-01-29T14:38:20.175Z,24.24
2023-01-29T14:40:46.863Z,23.41
2023-01-29T14:43:17.313Z,23.96
2023-01-29T14:45:43.936Z,24.21
2023-01-29T14:48:10.497Z,23.06
2023-01-29T14:50:37.027Z,23.58
2023-01-29T14:53:12.902Z,24.62
2023-01-29T14:55:43.763Z,23.91
2023-01-29T14:58:15.132Z,23.80
2023-01-29T15:00:43.707Z,24.61
2023-01-29T15:03:32.494Z,24.63
2023-01-29T15:05:59.176Z,23.55
2023-01-29T15:08:29.815Z,24.84
2023-01-29T15:10:57.688Z,24.99
2023-01-29T15:13:35.959Z,24.49
2023-01-29T15:16:16.351Z,24.48
2023-01-29T15:18:43.124Z,23.38
2023-01-29T15:21:14.246Z,24.33
2023-01-29T15:23:40.979Z,23.78
2023-01-29T15:26:11.857Z,23.82
2023-01-29T15:28:38.780Z,24.29
2023-01-29T15:31:07.477Z,23.69
2023-01-29T15:33:34.605Z,24.04
2023-01-29T15:36:07.301Z,23.56
2023-01-29T15:38:34.533Z,23.37
2023-01-29T15:41:02.616Z,23.72
2023-01-29T15:43:30.792Z,25.57
2023-01-29T15:45:59.448Z,24.85
2023-01-29T15:48:32.809Z,24.76
2023-01-29T15:50:59.782Z,24.20
2023-01-29T15:53:33.732Z,24.39
2023-01-29T15:56:00.381Z,23.70
2023-01-29T15:58:31.189Z,24.29
2023-01-29T16:00:58.059Z,24.64
2023-01-29T16:03:26.170Z,24.48
2023-01-29T16:05:53.320Z,24.93
2023-01-29T16:08:20.970Z,23.62
2023-01-29T16:10:48.145Z,23.86
2023-01-29T16:13:22.270Z,24.54
2023-01-29T16:15:58.603Z,24.95
2023-01-29T16:18:29.726Z,24.23
2023-01-29T16:20:56.502Z,24.24
2023-01-29T16:23:30.549Z,25.97
2023-01-29T16:26:02.003Z,25.12
2023-01-29T16:28:28.733Z,25.94
2023-01-29T16:30:57.186Z,25.54
2023-01-29T16:33:23.882Z,24.90
2023-01-29T16:35:51.382Z,24.44
2023-01-29T16:38:29.079Z,25.10
2023-01-29T16:41:07.420Z,25.53
2023-01-29T16:43:49.337Z,24.65
2023-01-29T16:46:20.436Z,25.76
2023-01-29T16:48:47.190Z,26.15
2023-01-29T16:51:17.651Z,26.20
2023-01-29T16:53:59.487Z,24.99
2023-01-29T16:56:27.739Z,25.91
2023-01-29T16:58:54.432Z,25.27
2023-01-29T17:01:22.716Z,25.68
2023-01-29T17:04:00.659Z,28.37
2023-01-29T17:06:27.499Z,27.02
2023-01-29T17:08:54.981Z,26.78
2023-01-29T17:11:46.241Z,26.64
2023-01-29T17:14:12.876Z,27.55
2023-01-29T17:16:56.458Z,28.05
2023-01-29T17:19:23.139Z,28.86
2023-01-29T17:21:49.807Z,28.50
2023-01-29T17:24:16.490Z,27.52
2023-01-29T17:26:43.228Z,32.31
2023-01-29T17:29:13.490Z,32.58
2023-01-29T17:31:40.250Z,33.56
2023-01-29T17:34:11.043Z,34.12
2023-01-29T17:36:37.710Z,33.87
2023-01-29T17:39:18.495Z,32.41
2023-01-29T17:41:47.631Z,33.73
2023-01-29T17:44:14.288Z,36.63
2023-01-29T17:46:40.924Z,35.36
2023-01-29T17:49:27.289Z,34.93
2023-01-29T17:51:54.403Z,32.69
2023-01-29T17:54:21.079Z,29.82
2023-01-29T17:56:47.934Z,28.57
2023-01-29T17:59:19.073Z,29.36
2023-01-29T18:01:46.420Z,32.91
2023-01-29T18:04:13.106Z,32.80
2023-01-29T18:06:40.227Z,30.64
2023-01-29T18:09:07.005Z,28.34
2023-01-29T18:11:33.657Z,28.99
2023-01-29T18:14:01.295Z,28.55
2023-01-29T18:16:40.959Z,29.23
2023-01-29T18:19:16.716Z,29.93
2023-01-29T18:21:43.379Z,30.12
2023-01-29T18:24:10.059Z,30.23
2023-01-29T18:26:36.728Z,29.60
2023-01-29T18:29:04.161Z,30.91
2023-01-29T18:31:31.036Z,32.81
2023-01-29T18:33:57.804Z,34.77
2023-01-29T18:36:24.444Z,35.76
2023-01-29T18:38:51.071Z,39.01
2023-01-29T18:41:17.715Z,39.45
2023-01-29T18:43:44.410Z,43.88
2023-01-29T18:46:11.137Z,47.17
2023-01-29T18:48:37.826Z,47.44
2023-01-29T18:51:04.630Z,36.94
2023-01-29T18:53:31.287Z,36.22
2023-01-29T18:55:58.718Z,34.88
2023-01-29T18:58:33.587Z,34.13
2023-01-29T19:01:03.661Z,33.38
2023-01-29T19:03:30.328Z,32.62
2023-01-29T19:06:01.039Z,31.64
2023-01-29T19:08:27.898Z,30.87
2023-01-29T19:10:54.536Z,30.54
2023-01-29T19:13:21.203Z,31.67
2023-01-29T19:15:49.284Z,31.01
2023-01-29T19:18:15.930Z,31.01
2023-01-29T19:20:42.579Z,30.14
2023-01-29T19:23:09.319Z,31.35
2023-01-29T19:25:39.414Z,31.07
2023-01-29T19:28:06.254Z,30.77
2023-01-29T19:30:32.984Z,31.12
2023-01-29T19:32:59.723Z,32.50
2023-01-29T19:35:26.382Z,33.09
2023-01-29T19:37:53.049Z,32.94
2023-01-29T19:40:19.859Z,32.56
2023-01-29T19:42:46.889Z,32.58
2023-01-29T19:45:13.719Z,31.61
2023-01-29T19:47:43.377Z,31.53
2023-01-29T19:50:10.742Z,33.88
2023-01-29T19:52:52.803Z,36.72
2023-01-29T19:55:20.299Z,36.35
2023-01-29T19:57:47.172Z,33.92
2023-01-29T20:00:14.317Z,33.37
2023-01-29T20:02:41.338Z,36.20
2023-01-29T20:05:08.150Z,37.11
2023-01-29T20:07:34.840Z,35.82
2023-01-29T20:10:01.495Z,33.38
2023-01-29T20:12:28.259Z,32.15
2023-01-29T20:14:54.962Z,32.56
2023-01-29T20:17:21.591Z,32.35
2023-01-29T20:19:48.246Z,34.77
2023-01-29T20:22:14.887Z,35.63
2023-01-29T20:24:41.603Z,35.87
2023-01-29T20:27:11.078Z,34.40
2023-01-29T20:29:38.348Z,34.21
2023-01-29T20:32:05.759Z,33.47
2023-01-29T20:34:32.438Z,33.44
2023-01-29T20:36:59.118Z,34.86
2023-01-29T20:39:25.839Z,35.28
2023-01-29T20:41:52.481Z,34.07
2023-01-29T20:44:19.145Z,33.61
2023-01-29T20:46:46.206Z,33.91
2023-01-29T20:49:12.848Z,31.44
2023-01-29T20:51:39.566Z,32.02
2023-01-29T20:54:06.292Z,33.62
2023-01-29T20:56:37.601Z,32.07
2023-01-29T20:59:06.632Z,32.99
2023-01-29T21:01:33.369Z,33.09
2023-01-29T21:04:00.053Z,31.53
2023-01-29T21:06:26.687Z,32.37
2023-01-29T21:08:53.313Z,32.22
2023-01-29T21:11:20.000Z,31.71
2023-01-29T21:13:46.661Z,32.74
2023-01-29T21:16:13.387Z,32.34
2023-01-29T21:18:40.087Z,33.68
2023-01-29T21:21:06.728Z,33.08
2023-01-29T21:23:33.375Z,32.72
2023-01-29T21:26:06.397Z,34.25
2023-01-29T21:28:33.091Z,34.72
2023-01-29T21:31:06.917Z,35.74
2023-01-29T21:33:33.555Z,35.76
2023-01-29T21:36:00.556Z,33.88
2023-01-29T21:38:27.352Z,35.18
2023-01-29T21:40:59.065Z,39.25
2023-01-29T21:43:25.697Z,38.06
2023-01-29T21:45:56.511Z,36.40
2023-01-29T21:48:23.202Z,35.36
2023-01-29T21:50:50.066Z,35.52
2023-01-29T21:53:17.043Z,36.86
2023-01-29T21:55:43.858Z,36.98
2023-01-29T21:58:10.993Z,36.02
2023-01-29T22:00:38.520Z,35.12
2023-01-29T22:03:05.277Z,33.85
2023-01-29T22:05:32.245Z,34.16
2023-01-29T22:07:58.998Z,33.07
2023-01-29T22:10:25.701Z,32.53
2023-01-29T22:12:52.486Z,33.20
2023-01-29T22:15:19.127Z,31.87
2023-01-29T22:17:45.816Z,32.23
2023-01-29T22:20:13.119Z,34.00
2023-01-29T22:22:39.785Z,31.86
2023-01-29T22:25:06.609Z,33.39
2023-01-29T22:27:33.387Z,31.96
2023-01-29T22:30:00.027Z,30.85
2023-01-29T22:32:26.718Z,31.53
2023-01-29T22:34:53.392Z,31.51
2023-01-29T22:37:20.200Z,31.57
2023-01-29T22:39:46.965Z,29.94
2023-01-29T22:42:13.622Z,30.06
2023-01-29T22:44:40.602Z,30.49
2023-01-29T22:47:07.258Z,30.84
2023-01-29T22:49:33.912Z,30.59
2023-01-29T22:52:00.546Z,30.79
2023-01-29T22:54:27.231Z,30.19
2023-01-29T22:56:53.877Z,29.73
2023-01-29T22:59:20.520Z,29.76
2023-01-29T23:01:47.215Z,29.61
2023-01-29T23:04:13.875Z,30.25
2023-01-29T23:06:40.538Z,30.85
2023-01-29T23:09:07.309Z,29.24
2023-01-29T23:11:33.940Z,29.30
2023-01-29T23:14:00.611Z,29.77
2023-01-29T23:16:28.180Z,31.04
2023-01-29T23:18:55.096Z,30.67
2023-01-29T23:21:22.398Z,30.33
2023-01-29T23:23:49.199Z,29.80
2023-01-29T23:26:15.885Z,30.57
2023-01-29T23:28:42.913Z,30.35
2023-01-29T23:31:09.615Z,30.98
2023-01-29T23:33:36.304Z,29.50
2023-01-29T23:36:02.950Z,29.53
2023-01-29T23:38:29.577Z,28.63
2023-01-29T23:40:56.227Z,27.87
2023-01-29T23:43:22.873Z,28.92
2023-01-29T23:45:49.509Z,27.79
2023-01-29T23:48:16.151Z,27.82
2023-01-29T23:50:42.817Z,27.55
2023-01-29T23:53:09.455Z,27.49
2023-01-29T23:55:36.386Z,28.16
2023-01-29T23:58:03.328Z,29.44
